sensor_id;sensor_type;location;lat;lon;timestamp;temperature;humidity
73939;DHT22;62291;47.554;8.504;2023-02-26T00:02:08;2.10;99.90
73939;DHT22;62291;47.554;8.504;2023-02-26T00:04:35;2.10;99.90
73939;DHT22;62291;47.554;8.504;2023-02-26T00:07:02;2.10;99.90
73939;DHT22;62291;47.554;8.504;2023-02-26T00:09:29;2.10;99.90
73939;DHT22;62291;47.554;8.504;2023-02-26T00:11:56;2.00;99.90
73939;DHT22;62291;47.554;8.504;2023-02-26T00:14:22;2.00;99.90
73939;DHT22;62291;47.554;8.504;2023-02-26T00:19:40;1.90;99.90
73939;DHT22;62291;47.554;8.504;2023-02-26T00:22:06;1.90;99.90
73939;DHT22;62291;47.554;8.504;2023-02-26T00:24:32;1.90;99.90
73939;DHT22;62291;47.554;8.504;2023-02-26T00:26:58;1.90;99.90
73939;DHT22;62291;47.554;8.504;2023-02-26T00:29:25;1.90;99.90
73939;DHT22;62291;47.554;8.504;2023-02-26T00:31:51;1.80;99.90
73939;DHT22;62291;47.554;8.504;2023-02-26T00:34:17;1.80;99.90
73939;DHT22;62291;47.554;8.504;2023-02-26T00:40:04;1.90;99.90
73939;DHT22;62291;47.554;8.504;2023-02-26T00:42:33;1.80;99.90
73939;DHT22;62291;47.554;8.504;2023-02-26T00:45:00;1.80;99.90
73939;DHT22;62291;47.554;8.504;2023-02-26T00:47:49;1.80;99.90
73939;DHT22;62291;47.554;8.504;2023-02-26T00:50:23;1.80;99.90
73939;DHT22;62291;47.554;8.504;2023-02-26T00:53:11;1.80;99.90
73939;DHT22;62291;47.554;8.504;2023-02-26T00:55:40;1.90;99.90
73939;DHT22;62291;47.554;8.504;2023-02-26T00:58:06;1.90;99.90
73939;DHT22;62291;47.554;8.504;2023-02-26T01:00:32;1.90;99.90
73939;DHT22;62291;47.554;8.504;2023-02-26T01:02:58;1.80;99.90
73939;DHT22;62291;47.554;8.504;2023-02-26T01:05:25;1.80;99.90
73939;DHT22;62291;47.554;8.504;2023-02-26T01:08:11;1.70;99.90
73939;DHT22;62291;47.554;8.504;2023-02-26T01:10:39;1.70;99.90
73939;DHT22;62291;47.554;8.504;2023-02-26T01:13:05;1.70;99.90
73939;DHT22;62291;47.554;8.504;2023-02-26T01:15:31;1.70;99.90
73939;DHT22;62291;47.554;8.504;2023-02-26T01:20:32;1.60;99.90
73939;DHT22;62291;47.554;8.504;2023-02-26T01:23:03;1.60;99.90
73939;DHT22;62291;47.554;8.504;2023-02-26T01:25:46;1.40;99.90
73939;DHT22;62291;47.554;8.504;2023-02-26T01:28:13;1.30;99.90
73939;DHT22;62291;47.554;8.504;2023-02-26T01:30:39;1.30;99.90
73939;DHT22;62291;47.554;8.504;2023-02-26T01:35:53;1.30;99.90
73939;DHT22;62291;47.554;8.504;2023-02-26T01:38:44;1.20;99.90
73939;DHT22;62291;47.554;8.504;2023-02-26T01:41:35;1.10;99.90
73939;DHT22;62291;47.554;8.504;2023-02-26T01:44:13;1.10;99.90
73939;DHT22;62291;47.554;8.504;2023-02-26T01:47:09;1.00;99.90
73939;DHT22;62291;47.554;8.504;2023-02-26T01:49:39;0.90;99.90
73939;DHT22;62291;47.554;8.504;2023-02-26T01:52:06;1.00;99.90
73939;DHT22;62291;47.554;8.504;2023-02-26T01:54:51;0.90;99.90
73939;DHT22;62291;47.554;8.504;2023-02-26T01:57:19;0.90;99.90
73939;DHT22;62291;47.554;8.504;2023-02-26T01:59:48;0.80;99.90
73939;DHT22;62291;47.554;8.504;2023-02-26T02:02:20;0.80;99.90
73939;DHT22;62291;47.554;8.504;2023-02-26T02:04:47;0.70;99.90
73939;DHT22;62291;47.554;8.504;2023-02-26T02:07:14;0.70;99.90
73939;DHT22;62291;47.554;8.504;2023-02-26T02:09:40;0.60;99.90
73939;DHT22;62291;47.554;8.504;2023-02-26T02:15:14;0.50;99.90
73939;DHT22;62291;47.554;8.504;2023-02-26T02:17:50;0.40;99.90
73939;DHT22;62291;47.554;8.504;2023-02-26T02:20:43;0.40;99.90
73939;DHT22;62291;47.554;8.504;2023-02-26T02:23:25;0.30;99.90
73939;DHT22;62291;47.554;8.504;2023-02-26T02:34:12;0.10;99.90
73939;DHT22;62291;47.554;8.504;2023-02-26T02:37:00;0.10;99.90
73939;DHT22;62291;47.554;8.504;2023-02-26T02:39:27;0.00;99.90
73939;DHT22;62291;47.554;8.504;2023-02-26T02:42:06;0.00;99.90
73939;DHT22;62291;47.554;8.504;2023-02-26T02:44:36;-0.10;99.90
73939;DHT22;62291;47.554;8.504;2023-02-26T02:47:04;-0.10;99.90
73939;DHT22;62291;47.554;8.504;2023-02-26T02:49:34;-0.10;99.90
73939;DHT22;62291;47.554;8.504;2023-02-26T02:52:13;-0.20;99.90
73939;DHT22;62291;47.554;8.504;2023-02-26T02:54:45;-0.10;99.90
73939;DHT22;62291;47.554;8.504;2023-02-26T02:57:21;-0.30;99.90
73939;DHT22;62291;47.554;8.504;2023-02-26T02:59:52;-0.30;99.90
73939;DHT22;62291;47.554;8.504;2023-02-26T03:04:48;-0.30;99.90
73939;DHT22;62291;47.554;8.504;2023-02-26T03:07:14;-0.30;99.90
73939;DHT22;62291;47.554;8.504;2023-02-26T03:09:41;-0.30;99.90
73939;DHT22;62291;47.554;8.504;2023-02-26T03:12:07;-0.40;99.90
73939;DHT22;62291;47.554;8.504;2023-02-26T03:14:33;-0.40;99.90
73939;DHT22;62291;47.554;8.504;2023-02-26T03:17:11;-0.40;99.90
73939;DHT22;62291;47.554;8.504;2023-02-26T03:22:55;-0.30;99.90
73939;DHT22;62291;47.554;8.504;2023-02-26T03:25:45;-0.30;99.90
73939;DHT22;62291;47.554;8.504;2023-02-26T03:28:26;-0.30;99.90
73939;DHT22;62291;47.554;8.504;2023-02-26T03:31:22;-0.30;99.90
73939;DHT22;62291;47.554;8.504;2023-02-26T03:33:52;-0.30;99.90
73939;DHT22;62291;47.554;8.504;2023-02-26T03:36:30;-0.30;99.90
73939;DHT22;62291;47.554;8.504;2023-02-26T03:39:07;-0.30;99.90
73939;DHT22;62291;47.554;8.504;2023-02-26T03:41:46;-0.30;99.90
73939;DHT22;62291;47.554;8.504;2023-02-26T03:44:22;-0.30;99.90
73939;DHT22;62291;47.554;8.504;2023-02-26T03:46:55;-0.40;99.90
73939;DHT22;62291;47.554;8.504;2023-02-26T03:49:27;-0.40;99.90
73939;DHT22;62291;47.554;8.504;2023-02-26T03:51:56;-0.40;99.90
73939;DHT22;62291;47.554;8.504;2023-02-26T03:54:59;-0.40;99.90
73939;DHT22;62291;47.554;8.504;2023-02-26T03:57:18;-0.30;99.90
73939;DHT22;62291;47.554;8.504;2023-02-26T03:59:43;-0.40;99.90
73939;DHT22;62291;47.554;8.504;2023-02-26T04:02:22;-0.30;99.90
73939;DHT22;62291;47.554;8.504;2023-02-26T04:05:00;-0.30;99.90
73939;DHT22;62291;47.554;8.504;2023-02-26T04:07:27;-0.30;99.90
73939;DHT22;62291;47.554;8.504;2023-02-26T04:09:53;-0.30;99.90
73939;DHT22;62291;47.554;8.504;2023-02-26T04:12:26;-0.20;99.90
73939;DHT22;62291;47.554;8.504;2023-02-26T04:14:52;-0.20;99.90
73939;DHT22;62291;47.554;8.504;2023-02-26T04:17:18;-0.20;99.90
73939;DHT22;62291;47.554;8.504;2023-02-26T04:19:44;-0.20;99.90
73939;DHT22;62291;47.554;8.504;2023-02-26T04:22:10;-0.20;99.90
73939;DHT22;62291;47.554;8.504;2023-02-26T04:24:36;-0.20;99.90
73939;DHT22;62291;47.554;8.504;2023-02-26T04:27:02;-0.20;99.90
73939;DHT22;62291;47.554;8.504;2023-02-26T04:29:28;-0.20;99.90
73939;DHT22;62291;47.554;8.504;2023-02-26T04:31:54;-0.20;99.90
73939;DHT22;62291;47.554;8.504;2023-02-26T04:34:19;-0.20;99.90
73939;DHT22;62291;47.554;8.504;2023-02-26T04:36:45;-0.20;99.90
73939;DHT22;62291;47.554;8.504;2023-02-26T04:39:11;-0.20;99.90
73939;DHT22;62291;47.554;8.504;2023-02-26T04:41:37;-0.20;99.90
73939;DHT22;62291;47.554;8.504;2023-02-26T04:44:04;-0.20;99.90
73939;DHT22;62291;47.554;8.504;2023-02-26T04:46:30;-0.20;99.90
73939;DHT22;62291;47.554;8.504;2023-02-26T04:48:56;-0.20;99.90
73939;DHT22;62291;47.554;8.504;2023-02-26T04:51:22;-0.20;99.90
73939;DHT22;62291;47.554;8.504;2023-02-26T04:53:48;-0.20;99.90
73939;DHT22;62291;47.554;8.504;2023-02-26T04:56:14;-0.20;99.90
73939;DHT22;62291;47.554;8.504;2023-02-26T04:58:39;-0.20;99.90
73939;DHT22;62291;47.554;8.504;2023-02-26T05:01:05;-0.20;99.90
73939;DHT22;62291;47.554;8.504;2023-02-26T05:03:31;-0.20;99.90
73939;DHT22;62291;47.554;8.504;2023-02-26T05:05:57;-0.20;99.90
73939;DHT22;62291;47.554;8.504;2023-02-26T05:08:25;-0.30;99.90
73939;DHT22;62291;47.554;8.504;2023-02-26T05:10:51;-0.30;99.90
73939;DHT22;62291;47.554;8.504;2023-02-26T05:13:18;-0.30;99.90
73939;DHT22;62291;47.554;8.504;2023-02-26T05:15:44;-0.30;99.90
73939;DHT22;62291;47.554;8.504;2023-02-26T05:18:09;-0.40;99.90
73939;DHT22;62291;47.554;8.504;2023-02-26T05:20:35;-0.30;99.90
73939;DHT22;62291;47.554;8.504;2023-02-26T05:23:01;-0.40;99.90
73939;DHT22;62291;47.554;8.504;2023-02-26T05:25:27;-0.30;99.90
73939;DHT22;62291;47.554;8.504;2023-02-26T05:27:52;-0.30;99.90
73939;DHT22;62291;47.554;8.504;2023-02-26T05:30:18;-0.30;99.90
73939;DHT22;62291;47.554;8.504;2023-02-26T05:32:44;-0.40;99.90
73939;DHT22;62291;47.554;8.504;2023-02-26T05:35:10;-0.40;99.90
73939;DHT22;62291;47.554;8.504;2023-02-26T05:37:37;-0.40;99.90
73939;DHT22;62291;47.554;8.504;2023-02-26T05:40:04;-0.40;99.90
73939;DHT22;62291;47.554;8.504;2023-02-26T05:42:30;-0.40;99.90
73939;DHT22;62291;47.554;8.504;2023-02-26T05:44:56;-0.40;99.90
73939;DHT22;62291;47.554;8.504;2023-02-26T05:47:22;-0.40;99.90
73939;DHT22;62291;47.554;8.504;2023-02-26T05:49:48;-0.50;99.90
73939;DHT22;62291;47.554;8.504;2023-02-26T05:52:14;-0.50;99.90
73939;DHT22;62291;47.554;8.504;2023-02-26T05:54:40;-0.50;99.90
73939;DHT22;62291;47.554;8.504;2023-02-26T05:57:06;-0.50;99.90
73939;DHT22;62291;47.554;8.504;2023-02-26T05:59:31;-0.50;99.90
73939;DHT22;62291;47.554;8.504;2023-02-26T06:01:57;-0.50;99.90
73939;DHT22;62291;47.554;8.504;2023-02-26T06:04:23;-0.50;99.90
73939;DHT22;62291;47.554;8.504;2023-02-26T06:06:49;-0.50;99.90
73939;DHT22;62291;47.554;8.504;2023-02-26T06:09:15;-0.50;99.90
73939;DHT22;62291;47.554;8.504;2023-02-26T06:11:40;-0.50;99.90
73939;DHT22;62291;47.554;8.504;2023-02-26T06:14:06;-0.50;99.90
73939;DHT22;62291;47.554;8.504;2023-02-26T06:16:32;-0.60;99.90
73939;DHT22;62291;47.554;8.504;2023-02-26T06:19:00;-0.60;99.90
73939;DHT22;62291;47.554;8.504;2023-02-26T06:21:26;-0.60;99.90
73939;DHT22;62291;47.554;8.504;2023-02-26T06:23:51;-0.60;99.90
73939;DHT22;62291;47.554;8.504;2023-02-26T06:26:17;-0.70;99.90
73939;DHT22;62291;47.554;8.504;2023-02-26T06:28:43;-0.80;99.90
73939;DHT22;62291;47.554;8.504;2023-02-26T06:31:09;-0.70;99.90
73939;DHT22;62291;47.554;8.504;2023-02-26T06:33:35;-0.80;99.90
73939;DHT22;62291;47.554;8.504;2023-02-26T06:36:00;-0.70;99.90
73939;DHT22;62291;47.554;8.504;2023-02-26T06:38:27;-0.70;99.90
73939;DHT22;62291;47.554;8.504;2023-02-26T06:40:53;-0.60;99.90
73939;DHT22;62291;47.554;8.504;2023-02-26T06:43:19;-0.40;99.90
73939;DHT22;62291;47.554;8.504;2023-02-26T06:45:44;-0.30;99.90
73939;DHT22;62291;47.554;8.504;2023-02-26T06:48:10;-0.40;99.90
73939;DHT22;62291;47.554;8.504;2023-02-26T06:50:36;-0.40;99.90
73939;DHT22;62291;47.554;8.504;2023-02-26T06:53:03;-0.40;99.90
73939;DHT22;62291;47.554;8.504;2023-02-26T06:55:28;-0.20;99.90
73939;DHT22;62291;47.554;8.504;2023-02-26T06:57:55;0.30;99.90
73939;DHT22;62291;47.554;8.504;2023-02-26T07:00:22;0.80;99.90
73939;DHT22;62291;47.554;8.504;2023-02-26T07:02:48;1.00;99.90
73939;DHT22;62291;47.554;8.504;2023-02-26T07:05:14;1.30;99.90
73939;DHT22;62291;47.554;8.504;2023-02-26T07:07:40;1.60;99.90
73939;DHT22;62291;47.554;8.504;2023-02-26T07:10:08;1.10;99.90
73939;DHT22;62291;47.554;8.504;2023-02-26T07:12:34;0.70;99.90
73939;DHT22;62291;47.554;8.504;2023-02-26T07:14:59;0.70;99.90
73939;DHT22;62291;47.554;8.504;2023-02-26T07:17:25;1.10;99.90
73939;DHT22;62291;47.554;8.504;2023-02-26T07:19:51;0.90;99.90
73939;DHT22;62291;47.554;8.504;2023-02-26T07:22:18;1.00;99.90
73939;DHT22;62291;47.554;8.504;2023-02-26T07:24:45;0.80;99.90
73939;DHT22;62291;47.554;8.504;2023-02-26T07:27:11;0.40;99.90
73939;DHT22;62291;47.554;8.504;2023-02-26T07:29:36;0.70;99.90
73939;DHT22;62291;47.554;8.504;2023-02-26T07:32:03;1.30;99.90
73939;DHT22;62291;47.554;8.504;2023-02-26T07:34:29;1.60;99.60
73939;DHT22;62291;47.554;8.504;2023-02-26T07:36:54;2.10;99.20
73939;DHT22;62291;47.554;8.504;2023-02-26T07:39:20;2.30;98.30
73939;DHT22;62291;47.554;8.504;2023-02-26T07:41:46;2.80;97.70
73939;DHT22;62291;47.554;8.504;2023-02-26T07:44:12;3.10;97.20
73939;DHT22;62291;47.554;8.504;2023-02-26T07:46:37;3.40;97.00
73939;DHT22;62291;47.554;8.504;2023-02-26T07:49:03;3.80;95.50
73939;DHT22;62291;47.554;8.504;2023-02-26T07:51:29;3.90;95.30
73939;DHT22;62291;47.554;8.504;2023-02-26T07:53:54;3.80;95.10
73939;DHT22;62291;47.554;8.504;2023-02-26T07:56:20;3.80;95.30
73939;DHT22;62291;47.554;8.504;2023-02-26T07:58:46;4.10;95.10
73939;DHT22;62291;47.554;8.504;2023-02-26T08:01:13;4.30;94.20
73939;DHT22;62291;47.554;8.504;2023-02-26T08:03:38;4.00;93.90
73939;DHT22;62291;47.554;8.504;2023-02-26T08:06:05;4.00;94.30
73939;DHT22;62291;47.554;8.504;2023-02-26T08:08:30;3.60;94.10
73939;DHT22;62291;47.554;8.504;2023-02-26T08:10:59;3.80;94.70
73939;DHT22;62291;47.554;8.504;2023-02-26T08:13:25;3.40;94.20
73939;DHT22;62291;47.554;8.504;2023-02-26T08:15:51;3.40;94.00
73939;DHT22;62291;47.554;8.504;2023-02-26T08:18:16;3.40;94.40
73939;DHT22;62291;47.554;8.504;2023-02-26T08:20:42;3.70;94.50
73939;DHT22;62291;47.554;8.504;2023-02-26T08:23:08;4.10;93.60
73939;DHT22;62291;47.554;8.504;2023-02-26T08:25:34;4.10;93.60
73939;DHT22;62291;47.554;8.504;2023-02-26T08:28:00;3.00;92.70
73939;DHT22;62291;47.554;8.504;2023-02-26T08:30:27;2.00;94.20
73939;DHT22;62291;47.554;8.504;2023-02-26T08:32:53;1.70;95.10
73939;DHT22;62291;47.554;8.504;2023-02-26T08:35:19;1.90;95.80
73939;DHT22;62291;47.554;8.504;2023-02-26T08:37:45;2.70;95.10
73939;DHT22;62291;47.554;8.504;2023-02-26T08:40:11;3.30;94.20
73939;DHT22;62291;47.554;8.504;2023-02-26T08:42:36;3.40;94.00
73939;DHT22;62291;47.554;8.504;2023-02-26T08:45:03;3.60;94.00
73939;DHT22;62291;47.554;8.504;2023-02-26T08:47:29;3.70;93.60
73939;DHT22;62291;47.554;8.504;2023-02-26T08:49:54;4.20;93.10
73939;DHT22;62291;47.554;8.504;2023-02-26T08:52:20;4.10;91.90
73939;DHT22;62291;47.554;8.504;2023-02-26T08:54:46;3.70;92.20
73939;DHT22;62291;47.554;8.504;2023-02-26T08:57:11;3.60;93.50
73939;DHT22;62291;47.554;8.504;2023-02-26T08:59:37;4.10;94.40
73939;DHT22;62291;47.554;8.504;2023-02-26T09:02:03;4.20;93.10
73939;DHT22;62291;47.554;8.504;2023-02-26T09:04:29;4.40;93.60
73939;DHT22;62291;47.554;8.504;2023-02-26T09:06:54;4.40;93.30
73939;DHT22;62291;47.554;8.504;2023-02-26T09:09:20;4.90;93.30
73939;DHT22;62291;47.554;8.504;2023-02-26T09:11:46;4.80;92.40
73939;DHT22;62291;47.554;8.504;2023-02-26T09:14:12;3.90;90.90
73939;DHT22;62291;47.554;8.504;2023-02-26T09:16:38;3.50;91.90
73939;DHT22;62291;47.554;8.504;2023-02-26T09:19:05;2.60;93.30
73939;DHT22;62291;47.554;8.504;2023-02-26T09:21:32;1.80;94.00
73939;DHT22;62291;47.554;8.504;2023-02-26T09:23:58;1.10;94.80
73939;DHT22;62291;47.554;8.504;2023-02-26T09:26:24;0.80;95.80
73939;DHT22;62291;47.554;8.504;2023-02-26T09:28:49;0.60;95.80
73939;DHT22;62291;47.554;8.504;2023-02-26T09:31:15;0.40;97.20
73939;DHT22;62291;47.554;8.504;2023-02-26T09:33:41;1.10;95.60
73939;DHT22;62291;47.554;8.504;2023-02-26T09:36:07;1.90;94.10
73939;DHT22;62291;47.554;8.504;2023-02-26T09:38:32;2.20;94.10
73939;DHT22;62291;47.554;8.504;2023-02-26T09:41:06;2.40;92.90
73939;DHT22;62291;47.554;8.504;2023-02-26T09:49:26;3.40;91.90
73939;DHT22;62291;47.554;8.504;2023-02-26T09:51:56;4.00;91.50
73939;DHT22;62291;47.554;8.504;2023-02-26T09:54:29;4.60;90.20
73939;DHT22;62291;47.554;8.504;2023-02-26T09:56:59;5.10;92.80
73939;DHT22;62291;47.554;8.504;2023-02-26T09:59:29;5.60;86.10
73939;DHT22;62291;47.554;8.504;2023-02-26T10:07:43;2.80;91.30
73939;DHT22;62291;47.554;8.504;2023-02-26T10:11:16;1.90;92.70
73939;DHT22;62291;47.554;8.504;2023-02-26T10:13:46;1.20;93.70
73939;DHT22;62291;47.554;8.504;2023-02-26T10:16:19;0.90;95.20
73939;DHT22;62291;47.554;8.504;2023-02-26T10:18:56;0.90;96.40
73939;DHT22;62291;47.554;8.504;2023-02-26T10:24:05;0.70;96.70
73939;DHT22;62291;47.554;8.504;2023-02-26T10:26:38;0.70;97.10
73939;DHT22;62291;47.554;8.504;2023-02-26T10:29:21;0.80;96.30
73939;DHT22;62291;47.554;8.504;2023-02-26T10:31:56;0.80;96.70
73939;DHT22;62291;47.554;8.504;2023-02-26T10:34:37;0.90;96.80
73939;DHT22;62291;47.554;8.504;2023-02-26T10:40:00;1.00;97.20
73939;DHT22;62291;47.554;8.504;2023-02-26T10:42:52;0.90;96.60
73939;DHT22;62291;47.554;8.504;2023-02-26T10:45:41;0.90;98.10
73939;DHT22;62291;47.554;8.504;2023-02-26T10:48:39;1.00;97.80
73939;DHT22;62291;47.554;8.504;2023-02-26T10:51:31;1.00;98.10
73939;DHT22;62291;47.554;8.504;2023-02-26T10:54:45;1.60;98.10
73939;DHT22;62291;47.554;8.504;2023-02-26T10:57:28;2.10;96.50
73939;DHT22;62291;47.554;8.504;2023-02-26T10:59:58;2.00;97.00
73939;DHT22;62291;47.554;8.504;2023-02-26T11:02:40;1.90;97.00
73939;DHT22;62291;47.554;8.504;2023-02-26T11:05:17;2.20;96.40
73939;DHT22;62291;47.554;8.504;2023-02-26T11:07:54;2.80;96.10
73939;DHT22;62291;47.554;8.504;2023-02-26T11:10:24;3.20;95.10
73939;DHT22;62291;47.554;8.504;2023-02-26T11:12:51;3.00;95.90
73939;DHT22;62291;47.554;8.504;2023-02-26T11:15:22;2.50;95.40
73939;DHT22;62291;47.554;8.504;2023-02-26T11:17:52;2.00;95.60
73939;DHT22;62291;47.554;8.504;2023-02-26T11:20:40;1.60;96.30
73939;DHT22;62291;47.554;8.504;2023-02-26T11:23:15;1.40;96.30
73939;DHT22;62291;47.554;8.504;2023-02-26T11:25:41;1.30;97.30
73939;DHT22;62291;47.554;8.504;2023-02-26T11:28:22;1.30;96.90
73939;DHT22;62291;47.554;8.504;2023-02-26T11:30:50;1.20;97.70
73939;DHT22;62291;47.554;8.504;2023-02-26T11:33:35;1.40;98.20
73939;DHT22;62291;47.554;8.504;2023-02-26T11:36:05;1.30;97.50
73939;DHT22;62291;47.554;8.504;2023-02-26T11:38:32;1.20;96.70
73939;DHT22;62291;47.554;8.504;2023-02-26T11:41:00;1.00;96.60
73939;DHT22;62291;47.554;8.504;2023-02-26T11:43:39;1.10;96.70
73939;DHT22;62291;47.554;8.504;2023-02-26T11:46:07;1.20;96.90
73939;DHT22;62291;47.554;8.504;2023-02-26T11:48:40;1.30;97.60
73939;DHT22;62291;47.554;8.504;2023-02-26T11:51:11;1.30;97.00
73939;DHT22;62291;47.554;8.504;2023-02-26T11:53:48;1.10;96.60
73939;DHT22;62291;47.554;8.504;2023-02-26T11:58:52;1.10;97.00
73939;DHT22;62291;47.554;8.504;2023-02-26T12:01:17;1.00;96.90
73939;DHT22;62291;47.554;8.504;2023-02-26T12:03:46;1.00;97.20
73939;DHT22;62291;47.554;8.504;2023-02-26T12:06:17;0.90;96.60
73939;DHT22;62291;47.554;8.504;2023-02-26T12:08:43;0.90;96.70
73939;DHT22;62291;47.554;8.504;2023-02-26T12:14:39;0.90;97.70
73939;DHT22;62291;47.554;8.504;2023-02-26T12:17:26;0.90;97.10
73939;DHT22;62291;47.554;8.504;2023-02-26T12:20:17;0.80;96.50
73939;DHT22;62291;47.554;8.504;2023-02-26T12:25:53;0.90;97.00
73939;DHT22;62291;47.554;8.504;2023-02-26T12:28:42;1.00;96.40
73939;DHT22;62291;47.554;8.504;2023-02-26T12:39:47;1.30;96.30
73939;DHT22;62291;47.554;8.504;2023-02-26T12:45:24;1.80;96.30
73939;DHT22;62291;47.554;8.504;2023-02-26T12:50:33;2.30;96.20
73939;DHT22;62291;47.554;8.504;2023-02-26T12:58:52;2.30;94.20
73939;DHT22;62291;47.554;8.504;2023-02-26T13:01:45;2.20;94.30
73939;DHT22;62291;47.554;8.504;2023-02-26T13:10:31;1.80;95.30
73939;DHT22;62291;47.554;8.504;2023-02-26T13:15:44;1.80;95.70
73939;DHT22;62291;47.554;8.504;2023-02-26T13:21:18;1.70;97.00
73939;DHT22;62291;47.554;8.504;2023-02-26T13:24:09;1.80;97.20
73939;DHT22;62291;47.554;8.504;2023-02-26T13:26:36;1.60;96.30
73939;DHT22;62291;47.554;8.504;2023-02-26T13:29:15;1.70;97.60
73939;DHT22;62291;47.554;8.504;2023-02-26T13:36:56;1.30;99.70
73939;DHT22;62291;47.554;8.504;2023-02-26T13:39:44;1.30;99.90
73939;DHT22;62291;47.554;8.504;2023-02-26T13:42:35;1.30;99.90
73939;DHT22;62291;47.554;8.504;2023-02-26T13:48:06;1.20;99.90
73939;DHT22;62291;47.554;8.504;2023-02-26T13:50:53;1.30;99.90
73939;DHT22;62291;47.554;8.504;2023-02-26T13:55:52;1.20;99.90
73939;DHT22;62291;47.554;8.504;2023-02-26T14:01:06;1.00;99.90
73939;DHT22;62291;47.554;8.504;2023-02-26T14:08:50;0.80;99.90
73939;DHT22;62291;47.554;8.504;2023-02-26T14:16:28;1.10;99.90
73939;DHT22;62291;47.554;8.504;2023-02-26T14:21:55;1.40;99.90
73939;DHT22;62291;47.554;8.504;2023-02-26T14:24:38;1.50;99.90
73939;DHT22;62291;47.554;8.504;2023-02-26T14:29:42;1.80;99.90
73939;DHT22;62291;47.554;8.504;2023-02-26T14:33:08;1.80;99.90
73939;DHT22;62291;47.554;8.504;2023-02-26T14:35:13;1.80;99.90
73939;DHT22;62291;47.554;8.504;2023-02-26T14:37:43;1.70;99.40
73939;DHT22;62291;47.554;8.504;2023-02-26T14:40:19;1.70;97.60
73939;DHT22;62291;47.554;8.504;2023-02-26T14:42:55;1.60;98.00
73939;DHT22;62291;47.554;8.504;2023-02-26T14:45:48;1.60;97.50
73939;DHT22;62291;47.554;8.504;2023-02-26T14:48:16;1.50;97.60
73939;DHT22;62291;47.554;8.504;2023-02-26T14:56:57;1.60;98.70
73939;DHT22;62291;47.554;8.504;2023-02-26T15:02:29;1.70;98.30
73939;DHT22;62291;47.554;8.504;2023-02-26T15:08:05;1.90;98.50
73939;DHT22;62291;47.554;8.504;2023-02-26T15:17:00;1.90;98.80
73939;DHT22;62291;47.554;8.504;2023-02-26T15:24:52;1.60;99.20
73939;DHT22;62291;47.554;8.504;2023-02-26T15:27:19;1.60;99.20
73939;DHT22;62291;47.554;8.504;2023-02-26T15:29:46;1.70;99.90
73939;DHT22;62291;47.554;8.504;2023-02-26T15:34:53;1.80;99.00
73939;DHT22;62291;47.554;8.504;2023-02-26T15:37:21;1.80;99.30
73939;DHT22;62291;47.554;8.504;2023-02-26T15:39:48;1.70;99.90
73939;DHT22;62291;47.554;8.504;2023-02-26T15:42:15;1.60;99.90
73939;DHT22;62291;47.554;8.504;2023-02-26T15:44:41;1.50;99.90
73939;DHT22;62291;47.554;8.504;2023-02-26T15:47:08;1.50;99.90
73939;DHT22;62291;47.554;8.504;2023-02-26T15:49:38;1.30;99.90
73939;DHT22;62291;47.554;8.504;2023-02-26T15:52:06;1.20;99.90
73939;DHT22;62291;47.554;8.504;2023-02-26T15:54:40;1.20;99.90
73939;DHT22;62291;47.554;8.504;2023-02-26T15:57:08;1.20;99.90
73939;DHT22;62291;47.554;8.504;2023-02-26T15:59:38;1.10;99.90
73939;DHT22;62291;47.554;8.504;2023-02-26T16:02:10;1.00;99.90
73939;DHT22;62291;47.554;8.504;2023-02-26T16:04:36;0.90;99.90
73939;DHT22;62291;47.554;8.504;2023-02-26T16:07:02;0.90;99.90
73939;DHT22;62291;47.554;8.504;2023-02-26T16:09:33;0.90;99.90
73939;DHT22;62291;47.554;8.504;2023-02-26T16:12:03;0.90;99.90
73939;DHT22;62291;47.554;8.504;2023-02-26T16:14:38;0.80;99.90
73939;DHT22;62291;47.554;8.504;2023-02-26T16:17:06;0.80;99.90
73939;DHT22;62291;47.554;8.504;2023-02-26T16:19:37;0.70;99.90
73939;DHT22;62291;47.554;8.504;2023-02-26T16:22:14;0.70;99.90
73939;DHT22;62291;47.554;8.504;2023-02-26T16:24:41;0.60;99.90
73939;DHT22;62291;47.554;8.504;2023-02-26T16:27:11;0.70;99.90
73939;DHT22;62291;47.554;8.504;2023-02-26T16:29:45;0.70;99.90
73939;DHT22;62291;47.554;8.504;2023-02-26T16:32:12;0.60;99.90
73939;DHT22;62291;47.554;8.504;2023-02-26T16:34:42;0.60;99.90
73939;DHT22;62291;47.554;8.504;2023-02-26T16:40:06;0.70;99.90
73939;DHT22;62291;47.554;8.504;2023-02-26T16:42:43;0.70;99.90
73939;DHT22;62291;47.554;8.504;2023-02-26T16:47:51;0.60;99.90
73939;DHT22;62291;47.554;8.504;2023-02-26T16:50:30;0.60;99.90
73939;DHT22;62291;47.554;8.504;2023-02-26T16:55:31;0.60;99.90
73939;DHT22;62291;47.554;8.504;2023-02-26T16:57:58;0.60;99.90
73939;DHT22;62291;47.554;8.504;2023-02-26T17:00:27;0.60;99.90
73939;DHT22;62291;47.554;8.504;2023-02-26T17:03:14;0.60;99.90
73939;DHT22;62291;47.554;8.504;2023-02-26T17:06:03;0.60;99.90
73939;DHT22;62291;47.554;8.504;2023-02-26T17:08:35;0.60;99.90
73939;DHT22;62291;47.554;8.504;2023-02-26T17:11:07;0.60;99.90
73939;DHT22;62291;47.554;8.504;2023-02-26T17:13:34;0.50;99.90
73939;DHT22;62291;47.554;8.504;2023-02-26T17:16:03;0.50;99.90
73939;DHT22;62291;47.554;8.504;2023-02-26T17:18:29;0.50;99.90
73939;DHT22;62291;47.554;8.504;2023-02-26T17:20:55;0.40;99.90
73939;DHT22;62291;47.554;8.504;2023-02-26T17:23:27;0.30;99.90
73939;DHT22;62291;47.554;8.504;2023-02-26T17:25:54;0.40;99.90
73939;DHT22;62291;47.554;8.504;2023-02-26T17:28:32;0.40;99.90
73939;DHT22;62291;47.554;8.504;2023-02-26T17:31:00;0.40;99.90
73939;DHT22;62291;47.554;8.504;2023-02-26T17:33:26;0.40;99.90
73939;DHT22;62291;47.554;8.504;2023-02-26T17:35:57;0.40;99.90
73939;DHT22;62291;47.554;8.504;2023-02-26T17:38:23;0.40;99.90
73939;DHT22;62291;47.554;8.504;2023-02-26T17:40:49;0.40;99.90
73939;DHT22;62291;47.554;8.504;2023-02-26T17:43:18;0.40;99.90
73939;DHT22;62291;47.554;8.504;2023-02-26T17:45:44;0.40;99.90
73939;DHT22;62291;47.554;8.504;2023-02-26T17:48:12;0.40;99.90
73939;DHT22;62291;47.554;8.504;2023-02-26T17:50:49;0.40;99.90
73939;DHT22;62291;47.554;8.504;2023-02-26T17:53:17;0.30;99.90
73939;DHT22;62291;47.554;8.504;2023-02-26T17:55:44;0.30;99.90
73939;DHT22;62291;47.554;8.504;2023-02-26T17:58:18;0.20;99.90
73939;DHT22;62291;47.554;8.504;2023-02-26T18:00:47;0.20;99.90
73939;DHT22;62291;47.554;8.504;2023-02-26T18:03:17;0.20;99.90
73939;DHT22;62291;47.554;8.504;2023-02-26T18:05:43;0.20;99.90
73939;DHT22;62291;47.554;8.504;2023-02-26T18:08:35;0.20;99.90
73939;DHT22;62291;47.554;8.504;2023-02-26T18:11:01;0.20;99.90
73939;DHT22;62291;47.554;8.504;2023-02-26T18:13:29;0.10;99.90
73939;DHT22;62291;47.554;8.504;2023-02-26T18:15:55;0.10;99.90
73939;DHT22;62291;47.554;8.504;2023-02-26T18:18:23;0.10;99.90
73939;DHT22;62291;47.554;8.504;2023-02-26T18:20:50;0.10;99.90
73939;DHT22;62291;47.554;8.504;2023-02-26T18:23:16;0.10;99.90
73939;DHT22;62291;47.554;8.504;2023-02-26T18:25:46;0.10;99.90
73939;DHT22;62291;47.554;8.504;2023-02-26T18:28:16;0.10;99.90
73939;DHT22;62291;47.554;8.504;2023-02-26T18:30:43;0.10;99.90
73939;DHT22;62291;47.554;8.504;2023-02-26T18:33:10;0.10;99.90
73939;DHT22;62291;47.554;8.504;2023-02-26T18:35:36;0.20;99.90